createdAt,value
2018-02-23T00:02:14.524Z,94.80
2018-02-23T00:04:41.300Z,95.40
2018-02-23T00:07:07.937Z,95.40
2018-02-23T00:09:34.796Z,95.20
2018-02-23T00:12:02.784Z,94.80
2018-02-23T00:14:29.484Z,94.80
2018-02-23T00:16:56.332Z,94.50
2018-02-23T00:19:23.037Z,94.40
2018-02-23T00:21:49.979Z,94.50
2018-02-23T00:24:17.394Z,94.80
2018-02-23T00:26:44.161Z,95.00
2018-02-23T00:29:10.933Z,95.10
2018-02-23T00:31:37.581Z,95.10
2018-02-23T00:34:04.592Z,95.20
2018-02-23T00:36:31.580Z,95.20
2018-02-23T00:38:59.812Z,95.20
2018-02-23T00:41:26.483Z,95.30
2018-02-23T00:43:53.166Z,95.40
2018-02-23T00:46:20.591Z,95.20
2018-02-23T00:48:47.595Z,95.20
2018-02-23T00:51:14.260Z,95.00
2018-02-23T00:53:41.182Z,95.20
2018-02-23T00:56:08.011Z,95.20
2018-02-23T00:58:36.039Z,95.00
2018-02-23T01:01:03.053Z,94.90
2018-02-23T01:03:30.437Z,95.20
2018-02-23T01:05:57.220Z,95.10
2018-02-23T01:08:23.858Z,94.90
2018-02-23T01:10:50.484Z,95.20
2018-02-23T01:13:17.729Z,95.10
2018-02-23T01:15:44.373Z,95.10
2018-02-23T01:18:11.399Z,95.00
2018-02-23T01:20:38.320Z,94.80
2018-02-23T01:23:05.057Z,95.10
2018-02-23T01:25:31.958Z,95.50
2018-02-23T01:28:00.115Z,95.90
2018-02-23T01:30:27.159Z,95.50
2018-02-23T01:32:53.840Z,95.30
2018-02-23T01:35:20.917Z,95.40
2018-02-23T01:37:47.880Z,95.30
2018-02-23T01:40:14.818Z,95.00
2018-02-23T01:42:42.592Z,95.10
2018-02-23T01:45:09.241Z,95.10
2018-02-23T01:47:35.924Z,95.10
2018-02-23T01:50:02.660Z,95.00
2018-02-23T01:52:30.475Z,95.20
2018-02-23T01:54:57.921Z,95.60
2018-02-23T01:57:25.483Z,95.20
2018-02-23T01:59:52.946Z,95.10
2018-02-23T02:02:19.740Z,95.10
2018-02-23T02:04:46.777Z,94.90
2018-02-23T02:07:13.538Z,95.00
2018-02-23T02:09:40.489Z,95.20
2018-02-23T02:12:07.270Z,95.00
2018-02-23T02:14:34.286Z,94.70
2018-02-23T02:17:01.115Z,94.70
2018-02-23T02:19:28.136Z,94.80
2018-02-23T02:21:55.533Z,95.10
2018-02-23T02:24:22.184Z,95.10
2018-02-23T02:26:48.893Z,95.00
2018-02-23T02:29:15.545Z,94.70
2018-02-23T02:31:43.238Z,95.10
2018-02-23T02:34:11.374Z,95.10
2018-02-23T02:36:38.130Z,95.00
2018-02-23T02:39:05.628Z,95.30
2018-02-23T02:41:32.403Z,95.30
2018-02-23T02:43:59.069Z,94.80
2018-02-23T02:46:25.740Z,94.60
2018-02-23T02:48:53.525Z,94.40
2018-02-23T02:51:20.217Z,94.60
2018-02-23T02:53:46.884Z,94.60
2018-02-23T02:56:14.360Z,94.70
2018-02-23T02:58:41.764Z,94.60
2018-02-23T03:01:09.360Z,94.50
2018-02-23T03:03:36.115Z,94.50
2018-02-23T03:06:03.316Z,94.70
2018-02-23T03:08:30.369Z,94.30
2018-02-23T03:10:57.420Z,94.00
2018-02-23T03:13:24.783Z,94.50
2018-02-23T03:15:51.443Z,94.40
2018-02-23T03:18:18.101Z,94.50
2018-02-23T03:20:44.711Z,94.20
2018-02-23T03:23:11.783Z,94.00
2018-02-23T03:25:38.425Z,94.10
2018-02-23T03:28:05.408Z,94.40
2018-02-23T03:30:32.163Z,94.50
2018-02-23T03:32:58.932Z,93.90
2018-02-23T03:35:26.393Z,94.00
2018-02-23T03:37:53.981Z,94.40
2018-02-23T03:40:20.771Z,94.40
2018-02-23T03:42:47.476Z,94.50
2018-02-23T03:45:14.325Z,94.70
2018-02-23T03:47:41.254Z,94.80
2018-02-23T03:50:07.918Z,94.80
2018-02-23T03:52:34.613Z,94.90
2018-02-23T03:55:01.562Z,94.70
2018-02-23T03:57:29.347Z,94.60
2018-02-23T03:59:56.793Z,94.50
2018-02-23T04:02:23.421Z,94.50
2018-02-23T04:04:50.926Z,94.80
2018-02-23T04:07:17.707Z,94.90
2018-02-23T04:09:44.442Z,94.80
2018-02-23T04:12:11.165Z,94.80
2018-02-23T04:14:38.046Z,94.70
2018-02-23T04:17:04.768Z,95.20
2018-02-23T04:19:31.943Z,95.20
2018-02-23T04:21:59.006Z,95.10
2018-02-23T04:24:25.744Z,94.80
2018-02-23T04:26:52.431Z,94.70
2018-02-23T04:29:19.161Z,95.10
2018-02-23T04:31:45.826Z,95.40
2018-02-23T04:34:12.816Z,95.00
2018-02-23T04:36:40.592Z,95.00
2018-02-23T04:39:07.246Z,95.00
2018-02-23T04:41:33.911Z,95.00
2018-02-23T04:44:00.803Z,95.20
2018-02-23T04:46:27.591Z,95.30
2018-02-23T04:48:54.382Z,95.20
2018-02-23T04:51:22.080Z,95.20
2018-02-23T04:53:49.868Z,95.30
2018-02-23T04:56:16.517Z,95.20
2018-02-23T04:58:43.211Z,95.50
2018-02-23T05:01:10.008Z,95.60
2018-02-23T05:03:37.021Z,95.40
2018-02-23T05:06:03.722Z,95.20
2018-02-23T05:08:31.686Z,95.30
2018-02-23T05:10:59.143Z,95.20
2018-02-23T05:13:26.299Z,95.20
2018-02-23T05:15:53.122Z,95.50
2018-02-23T05:18:21.016Z,94.90
2018-02-23T05:20:47.872Z,94.90
2018-02-23T05:23:14.714Z,95.20
2018-02-23T05:25:42.078Z,95.50
2018-02-23T05:28:10.154Z,95.30
2018-02-23T05:30:37.105Z,95.20
2018-02-23T05:33:04.355Z,95.00
2018-02-23T05:35:31.412Z,95.30
2018-02-23T05:37:58.892Z,95.20
2018-02-23T05:40:25.866Z,95.40
2018-02-23T05:42:52.678Z,95.40
2018-02-23T05:45:19.423Z,95.40
2018-02-23T05:47:46.889Z,95.20
2018-02-23T05:50:14.327Z,95.10
2018-02-23T05:52:41.292Z,94.90
2018-02-23T05:55:08.386Z,94.80
2018-02-23T05:57:35.197Z,94.90
2018-02-23T06:00:01.840Z,94.80
2018-02-23T06:02:28.552Z,94.70
2018-02-23T06:04:56.073Z,95.00
2018-02-23T06:07:22.800Z,95.00
2018-02-23T06:09:49.747Z,95.10
2018-02-23T06:12:16.601Z,95.00
2018-02-23T06:14:43.309Z,95.30
2018-02-23T06:17:17.946Z,95.30
2018-02-23T06:19:51.459Z,95.20
2018-02-23T06:22:18.320Z,95.20
2018-02-23T06:24:45.067Z,95.20
2018-02-23T06:27:12.429Z,95.00
2018-02-23T06:29:39.068Z,94.80
2018-02-23T06:32:05.803Z,94.60
2018-02-23T06:34:32.563Z,94.40
2018-02-23T06:36:59.284Z,94.20
2018-02-23T06:39:26.469Z,93.80
2018-02-23T06:41:53.182Z,93.70
2018-02-23T06:44:20.986Z,93.60
2018-02-23T06:46:47.725Z,93.70
2018-02-23T06:49:14.779Z,93.70
2018-02-23T06:51:43.474Z,93.20
2018-02-23T06:54:10.548Z,93.30
2018-02-23T06:56:37.320Z,93.80
2018-02-23T06:59:04.017Z,93.60
2018-02-23T07:01:31.165Z,93.70
2018-02-23T07:03:57.922Z,93.70
2018-02-23T07:06:24.663Z,93.40
2018-02-23T07:08:51.820Z,93.20
2018-02-23T07:11:19.079Z,92.60
2018-02-23T07:13:45.824Z,92.30
2018-02-23T07:16:13.390Z,91.70
2018-02-23T07:18:40.240Z,91.70
2018-02-23T07:21:07.164Z,92.10
2018-02-23T07:23:34.673Z,91.30
2018-02-23T07:26:01.382Z,91.30
2018-02-23T07:28:28.002Z,91.40
2018-02-23T07:30:55.062Z,91.00
2018-02-23T07:33:23.290Z,91.20
2018-02-23T07:35:50.535Z,91.20
2018-02-23T07:38:17.427Z,90.80
2018-02-23T07:40:44.420Z,90.30
2018-02-23T07:43:11.402Z,90.70
2018-02-23T07:45:38.948Z,90.70
2018-02-23T07:48:05.804Z,90.70
2018-02-23T07:50:32.744Z,89.80
2018-02-23T07:52:59.600Z,89.90
2018-02-23T07:55:26.450Z,89.30
2018-02-23T07:57:53.690Z,89.00
2018-02-23T08:00:20.530Z,90.00
2018-02-23T08:02:47.996Z,88.20
2018-02-23T08:05:15.628Z,87.70
2018-02-23T08:07:42.393Z,87.70
2018-02-23T08:10:09.998Z,88.80
2018-02-23T08:12:36.733Z,88.80
2018-02-23T08:15:03.883Z,88.20
2018-02-23T08:17:30.746Z,87.90
2018-02-23T08:19:57.596Z,89.00
2018-02-23T08:22:24.647Z,88.60
2018-02-23T08:24:51.903Z,88.60
2018-02-23T08:27:18.760Z,88.90
2018-02-23T08:29:45.706Z,88.70
2018-02-23T08:32:12.746Z,88.80
2018-02-23T08:34:39.809Z,89.90
2018-02-23T08:37:07.276Z,90.10
2018-02-23T08:39:34.120Z,91.00
2018-02-23T08:42:00.872Z,90.90
2018-02-23T08:44:28.026Z,90.70
2018-02-23T08:46:54.977Z,90.90
2018-02-23T08:49:23.261Z,90.90
2018-02-23T08:51:50.106Z,90.80
2018-02-23T08:54:17.054Z,90.90
2018-02-23T08:56:44.005Z,91.20
2018-02-23T08:59:10.650Z,90.80
2018-02-23T09:01:37.384Z,90.70
2018-02-23T09:04:04.084Z,90.40
2018-02-23T09:06:30.887Z,90.10
2018-02-23T09:08:58.149Z,90.20
2018-02-23T09:11:25.201Z,89.30
2018-02-23T09:13:52.559Z,90.00
2018-02-23T09:16:19.807Z,90.00
2018-02-23T09:18:47.531Z,90.50
2018-02-23T09:21:15.253Z,89.40
2018-02-23T09:23:42.519Z,89.30
2018-02-23T09:26:09.953Z,88.50
2018-02-23T09:28:37.749Z,87.20
2018-02-23T09:31:04.688Z,87.20
2018-02-23T09:33:44.131Z,86.80
2018-02-23T09:36:11.067Z,87.10
2018-02-23T09:38:38.240Z,87.40
2018-02-23T09:41:05.391Z,87.20
2018-02-23T09:43:32.111Z,85.40
2018-02-23T09:45:59.908Z,86.00
2018-02-23T09:48:27.165Z,86.00
2018-02-23T09:50:54.426Z,86.00
2018-02-23T09:53:21.988Z,83.40
2018-02-23T09:55:49.042Z,83.40
2018-02-23T09:58:16.300Z,84.50
2018-02-23T10:00:43.154Z,84.30
2018-02-23T10:03:09.816Z,82.70
2018-02-23T10:05:36.842Z,82.90
2018-02-23T10:08:04.792Z,82.60
2018-02-23T10:10:32.387Z,80.20
2018-02-23T10:13:00.257Z,80.10
2018-02-23T10:15:27.313Z,79.90
2018-02-23T10:17:54.264Z,80.60
2018-02-23T10:20:21.623Z,78.30
2018-02-23T10:22:48.470Z,79.00
2018-02-23T10:25:15.726Z,78.40
2018-02-23T10:27:44.320Z,77.00
2018-02-23T10:30:11.475Z,76.80
2018-02-23T10:32:38.529Z,76.00
2018-02-23T10:35:05.497Z,77.60
2018-02-23T10:37:32.328Z,75.40
2018-02-23T10:39:59.070Z,76.30
2018-02-23T10:42:26.226Z,77.60
2018-02-23T10:44:52.983Z,78.30
2018-02-23T10:47:19.909Z,79.60
2018-02-23T10:49:48.307Z,79.10
2018-02-23T10:52:15.053Z,79.10
2018-02-23T10:54:41.802Z,77.80
2018-02-23T10:57:08.531Z,76.80
2018-02-23T10:59:35.985Z,76.80
2018-02-23T11:02:03.781Z,77.40
2018-02-23T11:04:30.833Z,76.40
2018-02-23T11:06:57.679Z,76.20
2018-02-23T11:09:24.839Z,78.20
2018-02-23T11:11:51.785Z,76.00
2018-02-23T11:14:19.147Z,74.50
2018-02-23T11:16:45.996Z,75.20
2018-02-23T11:19:13.027Z,71.50
2018-02-23T11:21:40.716Z,71.20
2018-02-23T11:24:07.974Z,71.20
2018-02-23T11:26:35.008Z,71.50
2018-02-23T11:29:02.797Z,70.90
2018-02-23T11:31:29.749Z,70.90
2018-02-23T11:33:56.601Z,72.40
2018-02-23T11:36:23.649Z,74.40
2018-02-23T11:38:50.374Z,75.80
2018-02-23T11:41:18.369Z,76.50
2018-02-23T11:43:45.818Z,74.40
2018-02-23T11:46:13.435Z,74.40
2018-02-23T11:48:40.244Z,74.30
2018-02-23T11:51:06.968Z,72.30
2018-02-23T11:53:34.762Z,70.40
2018-02-23T11:56:01.920Z,70.40
2018-02-23T11:58:28.666Z,69.30
2018-02-23T12:00:55.487Z,68.00
2018-02-23T12:03:23.387Z,68.80
2018-02-23T12:05:50.644Z,68.70
2018-02-23T12:08:17.387Z,70.20
2018-02-23T12:10:44.137Z,69.00
2018-02-23T12:13:10.880Z,68.80
2018-02-23T12:15:37.834Z,69.40
2018-02-23T12:18:04.579Z,71.70
2018-02-23T12:20:31.429Z,69.90
2018-02-23T12:22:58.479Z,67.20
2018-02-23T12:25:25.331Z,68.40
2018-02-23T12:27:52.589Z,65.90
2018-02-23T12:30:19.641Z,67.30
2018-02-23T12:32:46.692Z,66.10
2018-02-23T12:35:14.056Z,68.80
2018-02-23T12:37:40.801Z,67.60
2018-02-23T12:40:07.554Z,70.70
2018-02-23T12:42:34.268Z,71.00
2018-02-23T12:45:01.859Z,77.40
2018-02-23T12:47:28.528Z,77.20
2018-02-23T12:49:55.452Z,79.10
2018-02-23T12:52:22.133Z,82.90
2018-02-23T12:54:49.159Z,86.80
2018-02-23T12:57:16.752Z,87.60
2018-02-23T12:59:43.685Z,89.70
2018-02-23T13:02:11.022Z,90.60
2018-02-23T13:04:38.180Z,90.90
2018-02-23T13:07:05.020Z,90.00
2018-02-23T13:09:31.981Z,90.70
2018-02-23T13:11:58.933Z,90.60
2018-02-23T13:14:32.128Z,89.40
2018-02-23T13:16:58.870Z,89.50
2018-02-23T13:19:26.645Z,88.30
2018-02-23T13:21:53.487Z,89.60
2018-02-23T13:24:20.339Z,88.90
2018-02-23T13:26:47.083Z,89.10
2018-02-23T13:29:14.341Z,87.70
2018-02-23T13:31:41.186Z,87.00
2018-02-23T13:34:07.940Z,85.50
2018-02-23T13:36:34.788Z,85.30
2018-02-23T13:39:01.429Z,86.00
2018-02-23T13:41:35.237Z,85.30
2018-02-23T13:44:02.187Z,85.70
2018-02-23T13:46:29.035Z,85.60
2018-02-23T13:48:55.887Z,87.60
2018-02-23T13:51:23.041Z,86.70
2018-02-23T13:53:50.606Z,85.30
2018-02-23T13:56:17.658Z,86.90
2018-02-23T13:58:44.509Z,87.20
2018-02-23T14:01:11.602Z,88.20
2018-02-23T14:03:38.614Z,87.30
2018-02-23T14:06:06.283Z,85.60
2018-02-23T14:08:33.336Z,85.30
2018-02-23T14:11:00.083Z,83.10
2018-02-23T14:13:26.828Z,83.60
2018-02-23T14:15:53.679Z,80.90
2018-02-23T14:18:20.932Z,81.60
2018-02-23T14:20:47.784Z,81.40
2018-02-23T14:23:15.144Z,81.80
2018-02-23T14:25:42.092Z,83.60
2018-02-23T14:28:09.128Z,86.60
2018-02-23T14:30:36.616Z,86.90
2018-02-23T14:33:04.176Z,86.80
2018-02-23T14:35:31.332Z,86.20
2018-02-23T14:37:59.177Z,86.40
2018-02-23T14:40:26.768Z,86.90
2018-02-23T14:42:53.615Z,86.90
2018-02-23T14:45:20.360Z,87.30
2018-02-23T14:47:47.108Z,86.50
2018-02-23T14:50:26.339Z,87.90
2018-02-23T14:52:53.376Z,87.40
2018-02-23T14:55:20.323Z,87.00
2018-02-23T14:57:47.910Z,87.10
2018-02-23T15:00:14.655Z,87.00
2018-02-23T15:02:42.688Z,86.70
2018-02-23T15:05:09.373Z,89.70
2018-02-23T15:07:36.634Z,88.50
2018-02-23T15:10:03.377Z,88.40
2018-02-23T15:12:30.227Z,87.50
2018-02-23T15:14:57.078Z,88.50
2018-02-23T15:17:24.336Z,88.30
2018-02-23T15:19:52.515Z,86.50
2018-02-23T15:22:19.670Z,86.40
2018-02-23T15:24:46.519Z,86.90
2018-02-23T15:27:13.369Z,88.00
2018-02-23T15:29:40.218Z,89.50
2018-02-23T15:32:19.751Z,88.70
2018-02-23T15:34:46.604Z,90.10
2018-02-23T15:37:13.569Z,90.00
2018-02-23T15:39:40.480Z,90.50
2018-02-23T15:42:07.454Z,90.50
2018-02-23T15:44:34.193Z,91.00
2018-02-23T15:47:01.005Z,91.30
2018-02-23T15:52:21.636Z,92.70
2018-02-23T15:54:49.033Z,92.80
2018-02-23T15:57:16.572Z,92.70
2018-02-23T15:59:44.151Z,93.40
2018-02-23T16:02:12.516Z,93.40
2018-02-23T16:04:39.895Z,93.60
2018-02-23T16:07:07.048Z,94.10
2018-02-23T16:09:34.104Z,94.20
2018-02-23T16:12:00.945Z,94.30
2018-02-23T16:14:28.213Z,94.70
2018-02-23T16:16:55.772Z,94.20
2018-02-23T16:19:22.621Z,94.40
2018-02-23T16:21:49.780Z,94.60
2018-02-23T16:24:16.835Z,94.60
2018-02-23T16:26:44.299Z,94.60
2018-02-23T16:29:11.293Z,94.70
2018-02-23T16:31:39.107Z,94.60
2018-02-23T16:34:05.966Z,95.00
2018-02-23T16:36:33.224Z,95.10
2018-02-23T16:39:01.707Z,95.50
2018-02-23T16:41:28.761Z,95.80
2018-02-23T16:43:55.609Z,95.60
2018-02-23T16:46:22.667Z,95.60
2018-02-23T16:48:50.230Z,95.50
2018-02-23T16:51:17.260Z,95.70
2018-02-23T16:53:45.463Z,95.90
2018-02-23T16:56:12.410Z,95.80
2018-02-23T16:58:39.159Z,95.80
2018-02-23T17:01:06.010Z,95.90
2018-02-23T17:03:32.856Z,95.80
2018-02-23T17:05:59.715Z,95.70
2018-02-23T17:08:26.728Z,95.80
2018-02-23T17:10:54.527Z,95.80
2018-02-23T17:13:21.375Z,95.80
2018-02-23T17:15:48.037Z,96.10
2018-02-23T17:18:14.755Z,96.00
2018-02-23T17:20:42.626Z,95.80
2018-02-23T17:23:09.664Z,95.70
2018-02-23T17:25:37.565Z,95.60
2018-02-23T17:28:04.412Z,95.40
2018-02-23T17:30:31.821Z,95.30
2018-02-23T17:32:58.722Z,95.30
2018-02-23T17:35:25.571Z,95.30
2018-02-23T17:37:52.318Z,95.40
2018-02-23T17:40:19.163Z,95.10
2018-02-23T17:42:46.092Z,95.10
2018-02-23T17:45:13.578Z,95.20
2018-02-23T17:47:40.299Z,95.20
2018-02-23T17:50:07.132Z,95.50
2018-02-23T17:52:34.739Z,95.40
2018-02-23T17:55:01.785Z,95.40
2018-02-23T17:57:28.537Z,95.30
2018-02-23T17:59:55.593Z,95.60
2018-02-23T18:02:22.327Z,95.60
2018-02-23T18:04:49.599Z,95.40
2018-02-23T18:07:16.327Z,95.40
2018-02-23T18:09:43.295Z,95.60
2018-02-23T18:12:11.343Z,95.50
2018-02-23T18:14:39.653Z,96.00
2018-02-23T18:17:06.909Z,95.90
2018-02-23T18:19:33.732Z,95.80
2018-02-23T18:22:01.324Z,95.90
2018-02-23T18:24:28.453Z,95.80
2018-02-23T18:26:56.246Z,96.10
2018-02-23T18:29:23.506Z,96.00
2018-02-23T18:31:50.769Z,95.90
2018-02-23T18:34:18.028Z,95.80
2018-02-23T18:36:44.974Z,95.70
2018-02-23T18:39:11.720Z,95.80
2018-02-23T18:41:39.271Z,95.50
2018-02-23T18:44:06.946Z,95.40
2018-02-23T18:46:34.636Z,96.10
2018-02-23T18:49:01.465Z,95.70
2018-02-23T18:51:28.207Z,95.60
2018-02-23T18:53:55.820Z,95.80
2018-02-23T18:56:22.850Z,95.80
2018-02-23T18:58:49.885Z,95.60
2018-02-23T19:01:17.039Z,95.60
2018-02-23T19:03:43.894Z,95.30
2018-02-23T19:06:10.633Z,95.60
2018-02-23T19:08:37.389Z,95.90
2018-02-23T19:11:04.134Z,96.00
2018-02-23T19:13:30.809Z,95.90
2018-02-23T19:15:57.503Z,96.00
2018-02-23T19:18:24.270Z,96.10
2018-02-23T19:20:51.069Z,96.00
2018-02-23T19:23:17.740Z,95.50
2018-02-23T19:25:44.681Z,95.10
2018-02-23T19:28:12.681Z,94.90
2018-02-23T19:30:39.363Z,94.90
2018-02-23T19:33:06.208Z,95.00
2018-02-23T19:35:32.980Z,95.10
2018-02-23T19:38:01.507Z,94.80
2018-02-23T19:40:28.457Z,94.80
2018-02-23T19:42:55.193Z,95.20
2018-02-23T19:45:21.824Z,95.00
2018-02-23T19:47:49.271Z,94.90
2018-02-23T19:50:15.905Z,94.90
2018-02-23T19:52:42.557Z,95.00
2018-02-23T19:55:09.334Z,94.80
2018-02-23T19:57:35.988Z,95.30
2018-02-23T20:00:03.146Z,95.30
2018-02-23T20:02:30.308Z,95.30
2018-02-23T20:04:58.446Z,95.20
2018-02-23T20:07:26.203Z,95.60
2018-02-23T20:09:53.034Z,95.50
2018-02-23T20:12:20.355Z,95.90
2018-02-23T20:14:47.797Z,96.00
2018-02-23T20:17:14.691Z,96.10
2018-02-23T20:19:41.688Z,96.00
2018-02-23T20:22:08.673Z,95.90
2018-02-23T20:24:35.520Z,95.50
2018-02-23T20:27:03.842Z,95.80
2018-02-23T20:29:31.860Z,95.90
2018-02-23T20:31:58.719Z,96.20
2018-02-23T20:34:26.190Z,96.30
2018-02-23T20:36:53.344Z,96.30
2018-02-23T20:39:20.192Z,96.00
2018-02-23T20:41:48.653Z,95.60
2018-02-23T20:44:18.148Z,95.80
2018-02-23T20:46:45.233Z,95.80
2018-02-23T20:49:12.091Z,95.70
2018-02-23T20:51:39.589Z,95.80
2018-02-23T20:54:06.504Z,95.60
2018-02-23T20:56:34.273Z,95.50
2018-02-23T20:59:02.760Z,95.50
2018-02-23T21:01:29.563Z,95.50
2018-02-23T21:03:56.869Z,95.30
2018-02-23T21:06:24.670Z,95.10
2018-02-23T21:08:51.780Z,95.10
2018-02-23T21:11:19.193Z,95.20
2018-02-23T21:13:45.974Z,95.10
2018-02-23T21:16:12.989Z,94.90
2018-02-23T21:18:40.388Z,95.00
2018-02-23T21:21:09.429Z,94.90
2018-02-23T21:23:37.097Z,95.00
2018-02-23T21:26:04.140Z,94.80
2018-02-23T21:28:32.892Z,94.60
2018-02-23T21:31:01.803Z,94.20
2018-02-23T21:33:29.667Z,94.00
2018-02-23T21:35:57.687Z,94.00
2018-02-23T21:38:25.477Z,94.30
2018-02-23T21:40:53.986Z,94.30
2018-02-23T21:43:21.431Z,94.60
2018-02-23T21:45:49.252Z,94.60
2018-02-23T21:48:16.941Z,94.60
2018-02-23T21:50:45.770Z,94.30
2018-02-23T21:53:13.681Z,94.20
2018-02-23T21:55:41.849Z,94.10
2018-02-23T21:58:09.104Z,94.20
2018-02-23T22:00:36.798Z,94.60
2018-02-23T22:03:04.057Z,94.50
2018-02-23T22:05:31.479Z,94.60
2018-02-23T22:07:59.287Z,94.80
2018-02-23T22:10:26.274Z,94.60
2018-02-23T22:12:53.017Z,95.50
2018-02-23T22:15:19.732Z,95.50
2018-02-23T22:17:49.554Z,95.00
2018-02-23T22:20:16.824Z,95.10
2018-02-23T22:22:44.495Z,95.20
2018-02-23T22:25:11.246Z,95.50
2018-02-23T22:27:38.651Z,95.10
2018-02-23T22:30:07.710Z,95.10
2018-02-23T22:32:35.631Z,94.90
2018-02-23T22:35:03.828Z,95.20
2018-02-23T22:37:30.871Z,95.10
2018-02-23T22:39:58.524Z,95.20
2018-02-23T22:42:26.935Z,95.40
2018-02-23T22:44:54.500Z,95.40
2018-02-23T22:47:21.923Z,95.10
2018-02-23T22:49:49.080Z,94.90
2018-02-23T22:52:16.767Z,95.40
2018-02-23T22:54:43.757Z,95.10
2018-02-23T22:57:11.298Z,95.00
2018-02-23T22:59:39.053Z,95.20
2018-02-23T23:02:07.554Z,94.50
2018-02-23T23:04:35.225Z,94.50
2018-02-23T23:07:01.938Z,94.40
2018-02-23T23:09:28.620Z,94.20
2018-02-23T23:11:57.871Z,94.40
2018-02-23T23:14:24.900Z,94.00
2018-02-23T23:16:52.024Z,94.70
2018-02-23T23:19:19.983Z,94.30
2018-02-23T23:21:47.260Z,94.30
2018-02-23T23:24:14.006Z,94.30
2018-02-23T23:26:40.954Z,94.10
2018-02-23T23:29:07.759Z,94.20
2018-02-23T23:31:34.554Z,94.10
2018-02-23T23:34:01.293Z,93.80
2018-02-23T23:36:28.250Z,94.20
2018-02-23T23:38:55.403Z,94.80
2018-02-23T23:41:22.145Z,94.40
2018-02-23T23:43:48.879Z,94.60
2018-02-23T23:46:15.538Z,94.70
2018-02-23T23:48:42.835Z,94.50
2018-02-23T23:51:10.466Z,94.40
2018-02-23T23:53:37.616Z,94.40
2018-02-23T23:56:06.128Z,93.90
2018-02-23T23:58:33.677Z,93.90
